Time;durP1;ratioP1;P1;durP2;ratioP2;P2;SDS_P1;SDS_P2;PMS_P1;PMS_P2;Temp;Humidity;BMP_temperature;BMP_pressure;BME280_temperature;BME280_humidity;BME280_pressure;Samples;Min_cycle;Max_cycle;Signal;HPM_P1;HPM_P2
2022/04/26 03:36:35;;;;;;;16.33;14.73;;;;;;;11.98;80.53;99956.53;5017536;28;20400;-67
2022/04/26 03:39:00;;;;;;;15.88;14.38;;;;;;;12.00;80.20;99967.13;5017227;28;20381;-68
2022/04/26 03:41:26;;;;;;;17.13;15.53;;;;;;;11.96;80.36;99973.09;5027718;28;20401;-68
2022/04/26 03:43:51;;;;;;;17.70;15.90;;;;;;;11.94;80.49;99983.41;5016668;28;20411;-68
2022/04/26 03:46:16;;;;;;;15.97;14.47;;;;;;;11.83;80.91;99995.28;5032913;28;20399;-68
2022/04/26 03:48:41;;;;;;;15.27;13.87;;;;;;;11.83;81.13;99991.75;5018125;28;20453;-68
2022/04/26 03:51:07;;;;;;;15.50;14.03;;;;;;;11.82;81.27;99996.38;5029090;28;20397;-68
2022/04/26 03:53:33;;;;;;;15.23;13.77;;;;;;;11.87;81.26;99999.13;5016340;28;20494;-68
2022/04/26 03:55:58;;;;;;;14.90;13.45;;;;;;;11.93;80.80;99989.09;5013382;28;20420;-68
2022/04/26 03:58:25;;;;;;;15.63;13.30;;;;;;;11.93;80.67;100002.66;5030514;28;20410;-68
2022/04/26 04:00:50;;;;;;;14.63;13.32;;;;;;;11.92;80.59;100009.19;5015219;28;20431;-68
2022/04/26 04:03:16;;;;;;;14.63;13.32;;;;;;;11.95;80.71;100014.09;5030171;28;20890;-67
2022/04/26 04:05:42;;;;;;;14.97;13.67;;;;;;;11.98;80.45;100004.59;5022040;28;20772;-68
2022/04/26 04:08:07;;;;;;;15.45;13.95;;;;;;;12.01;80.44;100001.34;5024060;28;20433;-68
2022/04/26 04:10:33;;;;;;;15.17;13.77;;;;;;;12.02;80.21;100000.28;5013440;28;20409;-68
2022/04/26 04:12:58;;;;;;;16.10;14.60;;;;;;;12.03;80.07;100001.88;5012983;28;20911;-68
2022/04/26 04:15:23;;;;;;;14.33;13.03;;;;;;;12.02;80.17;100001.06;5024413;28;20399;-68
2022/04/26 04:17:48;;;;;;;15.47;14.07;;;;;;;12.01;80.37;99995.91;5018978;28;20417;-67
2022/04/26 04:20:15;;;;;;;16.13;14.53;;;;;;;11.96;80.17;99997.53;5010917;28;20417;-68
2022/04/26 04:22:41;;;;;;;15.25;13.85;;;;;;;11.95;80.00;99997.81;5018422;28;20496;-68
2022/04/26 04:25:06;;;;;;;14.43;13.10;;;;;;;11.94;80.21;99993.44;5018108;28;20512;-68
2022/04/26 04:27:32;;;;;;;15.80;14.37;;;;;;;11.90;80.23;100000.47;5012344;28;20412;-68
2022/04/26 04:30:02;;;;;;;15.17;13.70;;;;;;;11.89;80.32;100002.38;5029781;28;20387;-69
2022/04/26 04:32:28;;;;;;;15.85;14.30;;;;;;;11.83;80.25;100008.88;5018369;28;20403;-68
2022/04/26 04:34:53;;;;;;;17.35;15.70;;;;;;;11.77;80.45;100015.34;5024761;28;20415;-67
2022/04/26 04:37:18;;;;;;;16.37;14.77;;;;;;;11.77;80.58;100014.53;5015066;28;20409;-68
2022/04/26 04:39:44;;;;;;;16.87;15.27;;;;;;;11.76;80.60;100016.44;5016078;28;20417;-67
2022/04/26 04:42:09;;;;;;;17.30;15.60;;;;;;;11.78;80.80;100017.00;5015723;28;20415;-68
2022/04/26 04:44:34;;;;;;;15.45;14.02;;;;;;;11.81;80.64;100021.91;5022201;28;20410;-68
2022/04/26 04:47:00;;;;;;;16.57;15.00;;;;;;;11.72;81.35;100023.44;5026304;28;20416;-68
2022/04/26 04:49:25;;;;;;;15.88;14.48;;;;;;;11.72;81.47;100036.22;5007108;28;20409;-68
2022/04/26 04:51:51;;;;;;;16.43;14.93;;;;;;;11.64;81.48;100031.25;5014186;28;20498;-68
2022/04/26 04:54:16;;;;;;;17.53;15.80;;;;;;;11.68;81.70;100038.63;5010865;28;20411;-67
2022/04/26 04:56:41;;;;;;;16.10;14.67;;;;;;;11.69;81.74;100037.53;5011239;28;20408;-67
2022/04/26 04:59:07;;;;;;;16.52;14.95;;;;;;;11.65;81.71;100043.75;5012814;28;20745;-68
2022/04/26 05:01:32;;;;;;;16.97;15.33;;;;;;;11.62;81.90;100036.97;5014022;28;20768;-68
2022/04/26 05:03:58;;;;;;;17.10;15.30;;;;;;;11.64;82.10;100042.09;5027203;28;20412;-67
2022/04/26 05:06:23;;;;;;;17.63;15.98;;;;;;;11.66;81.83;100051.63;5019136;28;20427;-67
2022/04/26 05:08:49;;;;;;;17.93;16.23;;;;;;;11.70;82.00;100051.91;5026097;28;20403;-68
2022/04/26 05:11:14;;;;;;;17.20;15.60;;;;;;;11.75;81.79;100049.28;5031074;28;20487;-68
2022/04/26 05:13:40;;;;;;;16.58;15.05;;;;;;;11.73;81.68;100049.53;5021401;28;20503;-68
2022/04/26 05:16:05;;;;;;;16.37;14.87;;;;;;;11.73;82.01;100052.25;5014050;28;20389;-68
2022/04/26 05:18:31;;;;;;;17.50;15.70;;;;;;;11.78;81.90;100057.72;5024984;28;20805;-67
2022/04/26 05:20:56;;;;;;;18.33;16.53;;;;;;;11.81;81.87;100065.34;5015869;28;20975;-68
2022/04/26 05:26:05;;;;;;;20.80;18.60;;;;;;;11.83;82.04;100059.63;5030818;28;20430;-68
2022/04/26 05:28:31;;;;;;;21.20;19.07;;;;;;;11.84;82.13;100058.56;5017409;28;20872;-68
2022/04/26 05:30:56;;;;;;;22.05;18.98;;;;;;;11.81;82.20;100064.50;5028577;28;20402;-68
2022/04/26 05:33:22;;;;;;;23.63;21.07;;;;;;;11.82;82.07;100068.88;5017554;28;20394;-68
2022/04/26 05:35:48;;;;;;;23.10;20.70;;;;;;;11.82;82.13;100063.44;5031663;28;20453;-68
2022/04/26 05:38:14;;;;;;;23.60;21.20;;;;;;;11.80;82.24;100062.88;5013473;28;20455;-68
2022/04/26 05:40:39;;;;;;;23.88;21.42;;;;;;;11.84;81.92;100058.56;5011609;28;20543;-68
2022/04/26 05:43:05;;;;;;;24.47;21.87;;;;;;;11.83;81.67;100063.16;5028356;28;20484;-68
2022/04/26 05:45:30;;;;;;;23.60;21.20;;;;;;;11.83;81.54;100060.44;5014129;28;20416;-68
2022/04/26 05:47:55;;;;;;;22.37;20.10;;;;;;;11.77;81.41;100056.06;5012330;28;20937;-68
2022/04/26 05:50:21;;;;;;;22.40;20.10;;;;;;;11.73;81.74;100059.56;5010572;28;20400;-68
2022/04/26 05:52:46;;;;;;;21.70;19.60;;;;;;;11.71;81.77;100061.72;5014616;28;20754;-70
2022/04/26 05:55:11;;;;;;;21.77;19.67;;;;;;;11.71;81.43;100059.84;5031205;28;20430;-68
2022/04/26 05:57:38;;;;;;;22.00;19.80;;;;;;;11.66;81.56;100062.47;5021614;28;21131;-68
2022/04/26 06:00:05;;;;;;;22.20;19.85;;;;;;;11.56;81.66;100056.97;5011165;28;20417;-68
2022/04/26 06:02:30;;;;;;;21.05;19.02;;;;;;;11.54;81.49;100067.28;5018350;28;20920;-68
2022/04/26 06:04:56;;;;;;;21.67;19.67;;;;;;;11.57;81.59;100068.66;5019401;28;20427;-68
2022/04/26 06:07:21;;;;;;;20.80;18.70;;;;;;;11.70;81.27;100073.63;5023110;28;20897;-68
2022/04/26 06:09:46;;;;;;;20.43;18.30;;;;;;;11.77;nan;100074.25;5013345;28;20500;-68
2022/04/26 06:12:12;;;;;;;20.77;18.75;;;;;;;11.73;80.87;100070.41;5025353;28;20411;-68
2022/04/26 06:14:38;;;;;;;20.40;18.40;;;;;;;11.76;80.69;100075.31;5010649;28;20869;-68
2022/04/26 06:17:03;;;;;;;20.13;18.15;;;;;;;11.67;80.51;100079.59;5020522;28;20394;-68
2022/04/26 06:19:28;;;;;;;21.00;18.80;;;;;;;11.76;80.36;100076.16;5020142;28;20492;-68
2022/04/26 06:21:54;;;;;;;19.67;17.80;;;;;;;11.74;80.10;100083.75;5031095;28;20406;-68
2022/04/26 06:24:19;;;;;;;20.47;18.47;;;;;;;11.79;80.02;100080.22;5027870;28;20415;-68
2022/04/26 06:26:44;;;;;;;19.90;18.00;;;;;;;11.83;79.78;100093.03;5019025;28;20398;-68
2022/04/26 06:29:09;;;;;;;20.20;18.20;;;;;;;11.77;80.19;100085.13;5016384;28;20411;-68
2022/04/26 06:31:35;;;;;;;19.53;17.63;;;;;;;11.83;79.98;100084.88;5023203;28;20899;-68
2022/04/26 06:34:00;;;;;;;20.43;18.37;;;;;;;11.85;79.80;100090.06;5016518;28;20507;-68
2022/04/26 06:36:25;;;;;;;20.40;18.23;;;;;;;11.91;79.56;100092.56;5021234;28;20392;-68
2022/04/26 06:38:50;;;;;;;22.93;20.63;;;;;;;11.97;79.10;100085.25;5010401;28;20401;-68
2022/04/26 06:41:16;;;;;;;19.60;17.60;;;;;;;11.91;79.03;100087.13;5020403;28;20432;-68
2022/04/26 06:43:41;;;;;;;21.30;19.07;;;;;;;11.83;79.68;100098.47;5012434;28;20495;-68
2022/04/26 06:46:06;;;;;;;20.20;18.10;;;;;;;11.89;79.22;100093.88;5026271;28;20415;-68
2022/04/26 06:48:32;;;;;;;19.47;17.57;;;;;;;11.87;79.06;100088.72;5019570;28;21046;-68
2022/04/26 06:50:57;;;;;;;19.10;17.23;;;;;;;11.94;79.05;100093.91;5019320;28;20400;-68
2022/04/26 06:53:22;;;;;;;19.90;17.97;;;;;;;11.93;79.12;100093.09;5015785;28;20435;-68
2022/04/26 06:55:48;;;;;;;21.60;18.77;;;;;;;11.98;79.17;100096.94;5021183;28;20457;-68
2022/04/26 06:58:13;;;;;;;19.03;17.10;;;;;;;11.89;79.11;100100.13;5018655;28;20751;-68
2022/04/26 07:00:38;;;;;;;19.40;17.37;;;;;;;11.81;79.29;100094.38;5020391;28;20492;-68
2022/04/26 07:03:04;;;;;;;19.27;17.13;;;;;;;11.82;79.13;100101.47;5015439;28;20388;-68
2022/04/26 07:05:30;;;;;;;20.20;18.17;;;;;;;11.95;78.74;100104.50;5031367;28;20957;-67
2022/04/26 07:07:55;;;;;;;19.13;17.23;;;;;;;12.05;78.19;100102.94;5021489;28;20486;-68
2022/04/26 07:10:24;;;;;;;19.43;17.53;;;;;;;12.06;78.24;100102.66;5025099;28;20392;-68
2022/04/26 07:12:50;;;;;;;18.55;16.67;;;;;;;12.02;77.90;100103.47;5018193;28;20482;-68
2022/04/26 07:15:18;;;;;;;18.73;16.88;;;;;;;12.06;77.92;100110.81;5025346;28;20483;-67
2022/04/26 07:17:44;;;;;;;19.13;17.10;;;;;;;12.14;77.93;100110.34;5014929;28;20408;-68
2022/04/26 07:20:10;;;;;;;19.97;16.87;;;;;;;12.12;77.56;100107.03;5024903;28;20524;-67
2022/04/26 07:22:36;;;;;;;19.42;17.42;;;;;;;12.11;77.10;100105.44;5021415;28;20384;-68
2022/04/26 07:25:02;;;;;;;21.08;17.02;;;;;;;12.13;77.36;100102.44;5030935;28;20402;-68
2022/04/26 07:27:28;;;;;;;19.58;17.67;;;;;;;12.18;77.43;100102.47;5018100;28;20403;-68
2022/04/26 07:29:53;;;;;;;18.58;16.65;;;;;;;12.19;77.41;100109.53;5014993;28;20490;-67
2022/04/26 07:32:19;;;;;;;20.80;17.73;;;;;;;12.23;77.55;100102.50;5026666;28;20828;-67
2022/04/26 07:34:47;;;;;;;18.83;16.92;;;;;;;12.28;77.58;100107.97;5018376;28;21042;-68
2022/04/26 07:37:12;;;;;;;19.40;17.50;;;;;;;12.30;76.93;100101.19;5029968;28;20760;-67
2022/04/26 07:39:38;;;;;;;18.77;16.77;;;;;;;12.35;76.55;100103.09;5021114;28;20390;-68
2022/04/26 07:42:04;;;;;;;17.20;15.57;;;;;;;12.28;76.97;100095.16;5018843;28;20503;-68
2022/04/26 07:44:30;;;;;;;18.25;16.45;;;;;;;12.36;76.95;100104.72;5030469;28;20399;-68
2022/04/26 07:46:56;;;;;;;18.13;16.45;;;;;;;12.38;77.10;100100.66;5018150;28;20474;-68
2022/04/26 07:49:23;;;;;;;19.33;17.23;;;;;;;12.39;77.15;100106.91;5025541;28;20503;-68
2022/04/26 07:51:50;;;;;;;17.15;15.55;;;;;;;12.25;77.58;100101.13;5017448;28;20401;-68
2022/04/26 07:54:16;;;;;;;18.48;16.25;;;;;;;12.30;76.75;100101.19;5027660;28;20394;-67
2022/04/26 07:56:41;;;;;;;17.58;15.77;;;;;;;12.44;76.96;100102.34;5030540;28;20435;-68
2022/04/26 07:59:07;;;;;;;19.73;14.73;;;;;;;12.45;76.49;100109.38;5021224;28;20391;-68
2022/04/26 08:01:32;;;;;;;17.63;15.90;;;;;;;12.55;75.82;100105.06;5023660;28;20396;-68
2022/04/26 08:03:58;;;;;;;15.40;13.75;;;;;;;12.58;75.09;100115.44;5021895;28;20447;-67
2022/04/26 08:06:24;;;;;;;15.38;13.88;;;;;;;12.58;74.77;100107.28;5015939;28;20428;-68
2022/04/26 08:08:49;;;;;;;16.65;14.85;;;;;;;12.53;75.42;100121.66;5028193;28;20393;-68
2022/04/26 08:11:15;;;;;;;15.17;13.73;;;;;;;12.70;75.48;100118.72;5023299;28;20762;-68
2022/04/26 08:13:41;;;;;;;15.05;12.65;;;;;;;12.92;73.76;100119.34;5020763;28;20385;-67
2022/04/26 08:16:07;;;;;;;14.20;12.70;;;;;;;12.99;73.24;100123.44;5030089;28;20438;-67
2022/04/26 08:18:33;;;;;;;12.70;11.40;;;;;;;13.02;72.34;100131.06;5013227;28;20892;-67
2022/04/26 08:20:59;;;;;;;13.27;12.03;;;;;;;13.08;72.72;100133.78;5012384;28;20419;-68
2022/04/26 08:23:24;;;;;;;12.10;10.90;;;;;;;13.22;70.83;100141.19;5013886;28;20400;-68
2022/04/26 08:28:34;;;;;;;11.52;10.52;;;;;;;13.42;70.81;100143.94;5011060;28;20479;-68
2022/04/26 08:31:00;;;;;;;11.52;10.43;;;;;;;13.43;69.67;100147.50;5013716;28;20381;-67
2022/04/26 08:33:26;;;;;;;11.05;9.95;;;;;;;13.56;69.77;100155.13;5027563;28;20870;-68
2022/04/26 08:35:52;;;;;;;11.23;10.10;;;;;;;13.67;68.78;100156.72;5017123;28;20523;-68
2022/04/26 08:38:18;;;;;;;10.38;9.30;;;;;;;13.71;66.27;100160.56;5028146;28;20400;-68
2022/04/26 08:40:43;;;;;;;12.60;9.90;;;;;;;13.56;67.96;100159.75;5015179;28;20938;-68
2022/04/26 08:43:09;;;;;;;10.77;9.63;;;;;;;13.35;68.33;100167.06;5013646;28;20420;-67
2022/04/26 08:45:38;;;;;;;11.40;10.30;;;;;;;13.24;68.46;100163.50;5029344;28;20502;-68
2022/04/26 08:51:00;;;;;;;12.43;11.27;;;;;;;13.22;68.91;100173.84;5021849;28;20416;-68
2022/04/26 08:53:26;;;;;;;11.15;10.15;;;;;;;13.42;68.00;100163.00;5001642;28;20406;-68
2022/04/26 08:55:54;;;;;;;13.53;10.73;;;;;;;13.76;67.46;100170.66;5020175;28;20597;-68
2022/04/26 08:58:23;;;;;;;10.60;9.63;;;;;;;14.09;66.39;100175.53;5012410;28;20463;-68
2022/04/26 09:01:18;;;;;;;10.15;9.13;;;;;;;14.17;63.08;100172.22;5025459;28;20433;-67
2022/04/26 09:03:56;;;;;;;10.32;9.30;;;;;;;14.23;63.80;100176.56;5002058;28;20966;-68
2022/04/26 09:06:23;;;;;;;10.00;9.10;;;;;;;14.21;63.73;100180.66;5017333;28;20416;-67
2022/04/26 09:08:48;;;;;;;10.13;9.13;;;;;;;14.18;63.22;100186.66;5026550;28;20399;-67
2022/04/26 09:11:32;;;;;;;10.07;9.17;;;;;;;13.90;64.04;100182.59;5014326;28;20413;-68
2022/04/26 09:13:59;;;;;;;10.20;9.40;;;;;;;13.96;64.15;100185.03;5011499;28;20412;-68
2022/04/26 09:16:25;;;;;;;9.40;8.25;;;;;;;14.68;61.46;100188.50;5024251;28;20867;-68
2022/04/26 09:18:59;;;;;;;10.45;9.00;;;;;;;15.26;60.60;100186.84;5016851;28;20987;-68
2022/04/26 09:21:27;;;;;;;9.32;8.45;;;;;;;15.62;60.19;100192.91;5012281;28;20475;-67
2022/04/26 09:23:56;;;;;;;10.95;8.93;;;;;;;16.56;56.48;100192.34;5011713;28;20447;-68
2022/04/26 09:26:22;;;;;;;10.52;9.52;;;;;;;17.52;52.14;100196.56;5011809;28;20435;-68
2022/04/26 09:28:50;;;;;;;10.20;9.15;;;;;;;16.83;53.39;100198.03;5027350;28;20391;-67
2022/04/26 09:31:39;;;;;;;10.43;9.10;;;;;;;16.29;55.72;100192.88;5017008;28;20387;-68
2022/04/26 09:34:12;;;;;;;11.07;9.82;;;;;;;15.88;56.92;100197.06;5015215;28;20772;-67
2022/04/26 09:36:48;;;;;;;10.48;9.15;;;;;;;15.27;59.99;100208.41;5012300;28;20438;-67
2022/04/26 09:39:24;;;;;;;11.43;10.20;;;;;;;14.82;61.96;100212.16;5014111;28;20442;-68
2022/04/26 09:41:51;;;;;;;11.50;10.50;;;;;;;14.69;62.94;100207.28;5018541;28;20429;-68
2022/04/26 09:44:17;;;;;;;11.50;10.40;;;;;;;14.57;63.31;100212.25;5019277;28;20918;-68
2022/04/26 09:46:42;;;;;;;11.80;10.70;;;;;;;14.30;63.09;100209.81;5028132;28;20387;-68
2022/04/26 09:49:10;;;;;;;13.50;12.10;;;;;;;14.17;63.87;100213.09;5016940;28;20443;-68
2022/04/26 09:51:38;;;;;;;12.68;11.02;;;;;;;14.11;64.20;100208.75;5022284;28;20421;-68
2022/04/26 09:54:04;;;;;;;12.65;11.35;;;;;;;13.98;63.67;100206.59;5012944;28;20409;-68
2022/04/26 09:56:31;;;;;;;13.70;12.30;;;;;;;13.99;64.55;100209.03;5027997;28;20398;-68
2022/04/26 09:58:58;;;;;;;12.30;11.15;;;;;;;14.71;63.27;100199.66;5016954;28;20407;-68
2022/04/26 10:01:29;;;;;;;13.20;11.20;;;;;;;16.09;56.98;100190.34;5020505;28;20401;-68
2022/04/26 10:04:02;;;;;;;12.20;11.02;;;;;;;17.43;54.95;100190.94;5024114;28;20430;-68
2022/04/26 10:06:35;;;;;;;11.77;10.55;;;;;;;18.48;51.00;100201.25;5015783;28;20496;-68
2022/04/26 10:09:02;;;;;;;11.40;9.85;;;;;;;19.51;49.00;100205.19;5009130;28;20441;-68
2022/04/26 10:11:28;;;;;;;11.10;10.02;;;;;;;19.95;46.64;100204.41;5016203;28;20765;-68
2022/04/26 10:13:54;;;;;;;11.25;10.13;;;;;;;20.45;43.64;100210.56;5012206;28;20541;-68
2022/04/26 10:16:23;;;;;;;10.80;9.82;;;;;;;20.76;44.25;100204.22;5027729;28;20519;-68
2022/04/26 10:18:49;;;;;;;10.95;9.80;;;;;;;21.17;42.13;100202.75;5031688;28;20777;-68
2022/04/26 10:21:23;;;;;;;10.65;9.25;;;;;;;21.58;41.48;100207.00;5026637;28;20399;-68
2022/04/26 10:23:51;;;;;;;12.27;11.18;;;;;;;22.17;39.20;100202.63;5014868;28;20409;-68
2022/04/26 10:26:22;;;;;;;12.20;11.05;;;;;;;22.13;38.73;100204.41;5012021;28;20412;-68
2022/04/26 10:28:59;;;;;;;11.32;10.10;;;;;;;21.68;40.63;100210.28;5020152;28;20957;-68
2022/04/26 10:31:45;;;;;;;11.32;10.15;;;;;;;21.52;41.12;100217.41;5017753;28;20399;-68
2022/04/26 10:34:31;;;;;;;9.95;8.95;;;;;;;19.81;44.89;100220.16;4996640;28;20878;-68
2022/04/26 10:37:05;;;;;;;5.40;4.37;;;;;;;18.21;44.50;100225.09;5017483;28;20427;-68
2022/04/26 10:39:36;;;;;;;5.37;4.97;;;;;;;17.16;46.95;100233.78;5019889;28;20517;-69
2022/04/26 10:42:04;;;;;;;5.20;4.53;;;;;;;16.78;49.20;100238.34;5014865;28;20460;-68
2022/04/26 10:44:32;;;;;;;3.85;3.65;;;;;;;16.49;50.82;100236.44;5022295;28;20407;-68
2022/04/26 10:47:03;;;;;;;3.60;2.85;;;;;;;16.43;51.02;100234.84;5026729;28;20737;-68
2022/04/26 10:49:41;;;;;;;3.78;3.38;;;;;;;16.91;50.90;100243.13;5017636;28;20421;-68
2022/04/26 10:52:17;;;;;;;1.40;1.30;;;;;;;17.63;47.40;100250.13;5026641;28;20403;-68
2022/04/26 10:54:45;;;;;;;1.40;1.40;;;;;;;18.88;45.57;100254.59;5027028;28;20402;-68
2022/04/26 10:57:27;;;;;;;2.08;1.85;;;;;;;19.70;43.07;100262.75;5018629;28;20961;-68
2022/04/26 11:00:17;;;;;;;4.15;3.65;;;;;;;18.90;45.55;100279.81;5019956;28;20401;-68
2022/04/26 11:02:47;;;;;;;4.80;4.30;;;;;;;17.86;47.39;100282.13;5022837;28;20428;-68
2022/04/26 11:05:25;;;;;;;4.70;4.20;;;;;;;17.44;49.37;100282.16;5015063;28;20424;-68
2022/04/26 11:07:51;;;;;;;4.50;4.20;;;;;;;17.20;50.40;100278.63;5024398;28;20415;-68
2022/04/26 11:10:19;;;;;;;4.47;4.07;;;;;;;16.95;50.53;100280.56;5005266;28;20958;-69
2022/04/26 11:12:45;;;;;;;6.10;4.32;;;;;;;17.19;51.91;100293.44;5029516;28;20398;-69
2022/04/26 11:15:19;;;;;;;4.10;3.80;;;;;;;17.27;50.01;100292.78;5018839;28;20381;-69
2022/04/26 11:17:45;;;;;;;4.35;4.03;;;;;;;17.63;49.10;100293.97;5027323;28;20459;-68
2022/04/26 11:20:13;;;;;;;5.45;3.95;;;;;;;17.76;48.50;100297.91;5025453;28;20866;-68
2022/04/26 11:22:49;;;;;;;4.40;4.20;;;;;;;17.62;49.62;100295.06;5020263;28;20467;-68
2022/04/26 11:28:09;;;;;;;4.07;3.78;;;;;;;16.80;51.02;100308.09;5017382;28;20412;-68
2022/04/26 11:30:45;;;;;;;3.53;3.05;;;;;;;16.64;51.04;100306.63;5013094;28;20929;-69
2022/04/26 11:33:14;;;;;;;3.83;3.63;;;;;;;16.64;51.73;100314.81;5008491;28;20915;-68
2022/04/26 11:35:40;;;;;;;4.50;4.10;;;;;;;16.76;50.92;100311.72;5023110;28;20919;-68
2022/04/26 11:38:09;;;;;;;4.25;3.95;;;;;;;17.21;51.77;100311.22;5019062;28;20886;-68
2022/04/26 11:40:38;;;;;;;3.40;2.90;;;;;;;18.39;48.56;100310.09;5012715;28;20428;-68
2022/04/26 11:43:15;;;;;;;3.63;2.90;;;;;;;18.89;46.27;100308.41;5013659;28;20412;-68
2022/04/26 11:45:43;;;;;;;2.92;2.70;;;;;;;19.21;45.89;100309.41;5013392;28;20772;-68
2022/04/26 11:48:17;;;;;;;2.75;2.65;;;;;;;19.05;46.52;100317.97;5027593;28;20399;-68
2022/04/26 11:50:45;;;;;;;2.10;2.00;;;;;;;19.42;44.22;100313.41;5015931;28;20827;-68
2022/04/26 11:53:15;;;;;;;2.30;2.10;;;;;;;19.55;43.45;100321.66;5010381;28;20413;-68
2022/04/26 11:55:45;;;;;;;2.65;2.55;;;;;;;18.84;45.20;100319.47;5018394;28;20497;-70
2022/04/26 11:58:19;;;;;;;3.88;2.85;;;;;;;18.02;48.68;100319.16;5022566;28;20776;-70
2022/04/26 12:01:02;;;;;;;3.28;2.88;;;;;;;17.36;52.74;100327.44;5012154;28;20406;-70
2022/04/26 12:03:33;;;;;;;3.72;3.42;;;;;;;16.89;55.37;100335.66;5030328;28;20417;-69
2022/04/26 12:06:01;;;;;;;3.30;3.10;;;;;;;16.45;55.83;100339.31;5011059;28;20420;-69
2022/04/26 12:08:28;;;;;;;3.40;3.20;;;;;;;16.19;55.58;100328.88;5013293;28;20419;-69
2022/04/26 12:10:54;;;;;;;3.40;3.20;;;;;;;16.00;56.41;100334.19;5014761;28;20515;-70
2022/04/26 12:13:32;;;;;;;4.40;4.00;;;;;;;15.92;58.79;100332.06;5020019;28;20404;-70
2022/04/26 12:16:37;;;;;;;4.90;3.80;;;;;;;15.84;60.43;100327.19;5019687;28;20415;-69
2022/04/26 12:19:04;;;;;;;4.00;3.80;;;;;;;16.09;60.33;100337.97;4976621;28;20410;-69
2022/04/26 12:21:43;;;;;;;4.60;4.10;;;;;;;16.14;60.58;100342.56;5007742;28;20435;-69
2022/04/26 12:24:21;;;;;;;4.40;4.10;;;;;;;16.07;60.40;100345.59;5018765;28;20752;-69
2022/04/26 12:26:58;;;;;;;3.90;3.70;;;;;;;15.96;58.79;100344.06;5014383;28;20438;-69
2022/04/26 12:29:26;;;;;;;5.30;3.67;;;;;;;16.15;59.74;100352.41;5018341;28;20894;-69
2022/04/26 12:31:52;;;;;;;3.20;3.08;;;;;;;16.94;57.95;100346.56;5025797;28;20817;-69
2022/04/26 12:34:29;;;;;;;2.87;2.67;;;;;;;18.12;55.12;100351.09;5013664;28;20444;-69
2022/04/26 12:36:59;;;;;;;2.45;2.45;;;;;;;19.48;52.99;100353.41;5022237;28;20403;-69
2022/04/26 12:39:45;;;;;;;2.50;2.40;;;;;;;20.46;50.72;100346.25;5005545;28;20416;-69
2022/04/26 12:42:12;;;;;;;2.88;2.63;;;;;;;21.31;46.71;100356.16;5012658;28;20411;-70
2022/04/26 12:44:48;;;;;;;2.10;2.00;;;;;;;21.84;41.12;100344.94;5021583;28;20499;-69
2022/04/26 12:52:49;;;;;;;2.28;2.17;;;;;;;22.57;42.89;100349.53;5024016;28;20423;-69
2022/04/26 12:55:41;;;;;;;2.50;2.15;;;;;;;23.09;41.39;100344.72;5015503;28;20407;-70
2022/04/26 12:58:08;;;;;;;2.10;2.00;;;;;;;23.53;42.18;100344.22;5014597;28;20422;-71
2022/04/26 13:00:40;;;;;;;2.15;1.60;;;;;;;23.66;38.38;100339.59;5018210;28;20877;-75
2022/04/26 13:03:07;;;;;;;2.20;2.10;;;;;;;23.97;39.96;100342.81;5013950;28;20819;-69
2022/04/26 13:05:41;;;;;;;1.67;1.67;;;;;;;23.26;39.17;100348.22;5010442;28;20474;-69
2022/04/26 13:08:07;;;;;;;1.90;1.90;;;;;;;21.50;40.19;100351.22;5025366;28;20910;-69
2022/04/26 13:10:33;;;;;;;1.98;1.90;;;;;;;20.35;40.62;100353.94;5025615;28;20497;-70
2022/04/26 13:12:58;;;;;;;2.25;2.15;;;;;;;19.30;42.74;100348.81;5015292;28;20483;-69
2022/04/26 13:15:24;;;;;;;2.20;2.00;;;;;;;18.73;43.57;100355.66;5015393;28;20493;-69
2022/04/26 13:17:50;;;;;;;1.90;1.80;;;;;;;18.42;44.75;100352.56;5032659;28;20753;-69
2022/04/26 13:20:15;;;;;;;2.23;2.03;;;;;;;18.15;45.42;100350.50;5015317;28;20407;-69
2022/04/26 13:22:41;;;;;;;2.50;2.30;;;;;;;17.89;46.43;100360.22;5024243;28;20965;-69
2022/04/26 13:25:07;;;;;;;3.13;2.93;;;;;;;17.54;47.21;100365.03;5010770;28;20421;-70
2022/04/26 13:27:34;;;;;;;3.67;3.30;;;;;;;17.44;48.55;100364.34;5024150;28;20418;-69
2022/04/26 13:30:01;;;;;;;11.63;4.53;;;;;;;17.16;52.63;100379.72;5017170;28;20493;-69
2022/04/26 13:32:30;;;;;;;9.85;5.38;;;;;;;16.90;53.95;100365.47;5012483;28;20418;-69
2022/04/26 13:34:56;;;;;;;5.75;4.18;;;;;;;16.73;55.39;100381.50;5012852;28;20462;-69
2022/04/26 13:37:21;;;;;;;4.68;4.28;;;;;;;16.50;56.18;100395.88;5018432;28;20403;-69
2022/04/26 13:39:49;;;;;;;5.03;4.63;;;;;;;16.28;56.57;100403.72;5013173;28;20491;-70
2022/04/26 13:42:15;;;;;;;7.70;4.90;;;;;;;15.97;58.12;100403.09;5016475;28;20466;-70
2022/04/26 13:44:41;;;;;;;5.37;4.93;;;;;;;15.64;59.36;100401.88;5014022;28;20416;-69
2022/04/26 13:47:09;;;;;;;3.90;3.70;;;;;;;15.40;60.04;100395.38;5025233;28;23068;-69
2022/04/26 13:49:35;;;;;;;7.05;3.47;;;;;;;15.36;60.87;100386.09;5022175;28;20414;-69
2022/04/26 13:52:01;;;;;;;3.97;3.67;;;;;;;15.03;61.06;100382.09;5018411;28;20388;-69
2022/04/26 13:54:27;;;;;;;3.85;3.65;;;;;;;15.00;61.76;100385.38;5028301;28;20486;-69
2022/04/26 13:56:54;;;;;;;4.70;4.20;;;;;;;15.03;62.17;100393.84;5011963;28;20488;-70
2022/04/26 13:59:19;;;;;;;6.75;5.45;;;;;;;15.03;62.65;100393.84;5020637;28;20391;-69
2022/04/26 14:01:44;;;;;;;6.80;5.20;;;;;;;15.05;62.88;100402.56;5007636;28;20468;-69
2022/04/26 14:04:10;;;;;;;7.73;4.10;;;;;;;15.04;62.65;100391.94;5009847;28;20404;-69
2022/04/26 14:06:37;;;;;;;3.90;3.40;;;;;;;15.26;62.15;100395.16;5016399;28;20954;-69
2022/04/26 14:09:03;;;;;;;3.80;3.50;;;;;;;15.58;62.46;100390.16;5018975;28;20405;-69
2022/04/26 14:11:32;;;;;;;3.47;3.23;;;;;;;15.91;62.25;100380.44;5009820;28;20816;-69
2022/04/26 14:22:10;;;;;;;8.43;3.05;;;;;;;16.03;59.87;100380.91;5013986;28;20417;-69
2022/04/26 14:24:35;;;;;;;4.90;2.60;;;;;;;15.86;60.04;100371.44;5024530;28;20416;-69
2022/04/26 14:27:01;;;;;;;2.30;2.10;;;;;;;15.83;59.53;100372.84;5013143;28;20498;-68
2022/04/26 14:29:27;;;;;;;2.97;2.60;;;;;;;15.74;59.69;100369.03;5011622;28;20417;-69
2022/04/26 14:31:52;;;;;;;2.60;2.40;;;;;;;15.72;60.65;100373.97;5012061;28;20408;-69
2022/04/26 14:34:18;;;;;;;2.50;2.30;;;;;;;15.73;61.31;100372.06;5021648;28;20415;-68
2022/04/26 14:36:43;;;;;;;2.30;2.20;;;;;;;15.73;61.50;100374.78;5029085;28;20453;-68
2022/04/26 14:39:08;;;;;;;2.97;2.88;;;;;;;15.71;61.50;100375.06;5023906;28;21065;-69
2022/04/26 14:41:34;;;;;;;2.77;2.60;;;;;;;15.74;60.21;100381.91;5017961;28;20904;-70
2022/04/26 14:43:59;;;;;;;2.38;2.28;;;;;;;15.65;60.73;100381.66;5022620;28;20410;-69
2022/04/26 14:46:25;;;;;;;2.23;2.13;;;;;;;15.62;61.05;100392.31;5022285;28;20426;-69
2022/04/26 14:48:50;;;;;;;2.63;2.53;;;;;;;15.69;61.82;100390.09;5017084;28;20401;-69
2022/04/26 14:51:16;;;;;;;3.40;2.60;;;;;;;15.62;61.58;100387.69;5011024;28;20428;-69
2022/04/26 14:53:41;;;;;;;2.42;2.33;;;;;;;15.85;60.43;100386.19;5024922;28;20393;-69
2022/04/26 14:56:09;;;;;;;2.10;2.00;;;;;;;15.66;61.22;100382.47;5018496;28;20398;-69
2022/04/26 14:58:35;;;;;;;2.28;2.08;;;;;;;15.98;60.37;100383.66;5020103;28;20822;-69
2022/04/26 15:01:00;;;;;;;1.95;1.85;;;;;;;16.62;59.25;100371.75;5011313;28;20427;-69
2022/04/26 15:03:27;;;;;;;1.60;1.50;;;;;;;17.32;57.70;100372.97;5020905;28;20514;-69
2022/04/26 15:05:53;;;;;;;1.45;1.40;;;;;;;17.92;54.80;100374.16;5018254;28;20422;-69
2022/04/26 15:11:02;;;;;;;3.40;1.30;;;;;;;18.07;53.24;100376.69;5010349;28;20403;-69
2022/04/26 15:18:55;;;;;;;1.63;1.17;;;;;;;16.82;52.72;100385.28;5027619;28;20504;-69
2022/04/26 15:21:21;;;;;;;1.40;1.30;;;;;;;16.55;55.16;100385.78;5011891;28;20396;-69
2022/04/26 15:23:46;;;;;;;1.70;1.60;;;;;;;16.53;56.37;100398.09;5012648;28;20426;-69
2022/04/26 15:26:12;;;;;;;1.60;1.50;;;;;;;16.38;56.14;100393.53;5016029;28;20464;-69
2022/04/26 15:28:38;;;;;;;1.30;1.30;;;;;;;16.24;57.48;100400.72;5028741;28;20399;-69